Little York, Ohio
Current Conditions -  °F | °C
As of 4:53 AM on Saturday 25 Oct 2014 (Local Time) from KMNN Reporting Station
Haze Haze  
Wind Chill: 45°   Ceiling: Unl
Heat Index: 49°   Visibility: 6mi
Dew Point: 43°   Wind: 8mph
Humidity: 80%   Direction: 220°SW
Pressure: 29.96"   Gusts: NA
Location:  40.8054°N, 83.1316°W
Report Text: KMNN 250853Z AUTO 22007KT 6SM HZ FEW100 09/06 A2996 RMK AO2 SLP146 T00940061 58011 TSNO $
Loading
Personal Weather Stations






























Interactive Weather Map
Tropical Storm Tracking
New forecast layout! Learn more

10-Day Weather Forecast

Advertisements
Track Severe Weather on mobile